createdAt,value
2023-04-23T00:03:24.331Z,6.80
2023-04-23T00:08:29.328Z,6.20
2023-04-23T00:13:33.556Z,6.60
2023-04-23T00:18:36.925Z,6.90
2023-04-23T00:23:40.779Z,5.90
2023-04-23T00:28:43.863Z,5.80
2023-04-23T00:33:46.876Z,5.20
2023-04-23T00:38:50.173Z,5.40
2023-04-23T00:43:53.483Z,5.30
2023-04-23T00:48:57.459Z,7.20
2023-04-23T00:54:00.822Z,8.60
2023-04-23T00:59:04.160Z,6.40
2023-04-23T01:04:09.760Z,5.70
2023-04-23T01:09:13.641Z,6.20
2023-04-23T01:14:17.386Z,5.60
2023-04-23T01:19:20.961Z,5.60
2023-04-23T01:24:24.724Z,5.70
2023-04-23T01:29:29.070Z,5.50
2023-04-23T01:34:33.013Z,4.70
2023-04-23T01:39:37.294Z,4.50
2023-04-23T01:44:41.379Z,4.60
2023-04-23T01:49:44.926Z,5.90
2023-04-23T01:54:48.435Z,5.50
2023-04-23T01:59:51.484Z,5.20
2023-04-23T02:04:55.780Z,4.70
2023-04-23T02:09:59.302Z,4.80
2023-04-23T02:15:02.395Z,4.20
2023-04-23T02:20:09.892Z,4.50
2023-04-23T02:25:18.167Z,4.50
2023-04-23T02:30:23.013Z,4.00
2023-04-23T02:35:26.306Z,4.20
2023-04-23T02:40:29.503Z,4.70
2023-04-23T02:45:32.653Z,5.20
2023-04-23T02:50:35.729Z,3.70
2023-04-23T02:55:38.830Z,4.10
2023-04-23T03:00:42.185Z,4.00
2023-04-23T03:05:45.758Z,4.10
2023-04-23T03:10:49.059Z,4.30
2023-04-23T03:15:54.269Z,3.90
2023-04-23T03:20:57.815Z,3.90
2023-04-23T03:26:01.138Z,4.20
2023-04-23T03:31:04.405Z,3.70
2023-04-23T03:36:07.869Z,3.80
2023-04-23T03:41:11.316Z,4.30
2023-04-23T03:46:14.470Z,4.10
2023-04-23T03:51:17.500Z,3.90
2023-04-23T03:56:21.654Z,4.40
2023-04-23T04:01:24.732Z,6.80
2023-04-23T04:06:27.945Z,14.10
2023-04-23T04:11:31.668Z,13.70
2023-04-23T04:16:34.918Z,7.30
2023-04-23T04:21:38.226Z,4.80
2023-04-23T04:26:42.263Z,4.90
2023-04-23T04:31:45.347Z,5.00
2023-04-23T04:36:48.421Z,5.10
2023-04-23T04:41:51.430Z,5.00
2023-04-23T04:46:54.646Z,5.30
2023-04-23T04:51:57.840Z,5.20
2023-04-23T04:57:02.593Z,5.00
2023-04-23T05:02:05.878Z,5.40
2023-04-23T05:07:09.113Z,7.20
2023-04-23T05:12:12.473Z,7.60
2023-04-23T05:17:15.937Z,6.10
2023-04-23T05:22:19.050Z,6.30
2023-04-23T05:27:22.252Z,5.00
2023-04-23T05:32:26.420Z,5.40
2023-04-23T05:37:31.213Z,5.50
2023-04-23T05:42:37.326Z,5.00
2023-04-23T05:47:40.739Z,5.20
2023-04-23T05:52:43.917Z,5.30
2023-04-23T05:57:47.157Z,5.40
2023-04-23T06:02:50.868Z,5.60
2023-04-23T06:07:54.693Z,6.30
2023-04-23T06:12:57.889Z,5.30
2023-04-23T06:18:01.133Z,5.10
2023-04-23T06:23:04.329Z,6.00
2023-04-23T06:28:07.495Z,5.70
2023-04-23T06:33:11.115Z,5.00
2023-04-23T06:38:14.325Z,5.60
2023-04-23T06:43:17.433Z,5.10
2023-04-23T06:48:22.417Z,4.60
2023-04-23T06:53:25.706Z,4.60
2023-04-23T06:58:32.356Z,4.50
2023-04-23T07:03:36.738Z,4.90
2023-04-23T07:08:40.493Z,3.80
2023-04-23T07:13:43.671Z,4.70
2023-04-23T07:18:46.770Z,4.60
2023-04-23T07:23:49.987Z,5.10
2023-04-23T07:28:53.810Z,4.60
2023-04-23T07:33:57.217Z,4.80
2023-04-23T07:39:00.441Z,4.60
2023-04-23T07:44:04.559Z,4.50
2023-04-23T07:49:08.282Z,4.40
2023-04-23T07:54:11.825Z,5.00
2023-04-23T07:59:14.907Z,4.20
2023-04-23T08:04:18.274Z,4.60
2023-04-23T08:09:21.544Z,4.80
2023-04-23T08:14:24.671Z,4.20
2023-04-23T08:19:31.847Z,4.50
2023-04-23T08:24:35.040Z,4.30
2023-04-23T08:29:38.250Z,5.80
2023-04-23T08:34:41.465Z,4.40
2023-04-23T08:39:44.656Z,4.80
2023-04-23T08:44:49.201Z,5.20
2023-04-23T08:49:55.958Z,4.40
2023-04-23T08:55:01.867Z,3.90
2023-04-23T09:00:06.643Z,4.60
2023-04-23T09:05:10.958Z,4.20
2023-04-23T09:10:17.017Z,4.30
2023-04-23T09:15:22.503Z,4.00
2023-04-23T09:20:25.699Z,4.30
2023-04-23T09:25:29.011Z,4.30
2023-04-23T09:30:32.215Z,4.10
2023-04-23T09:35:36.863Z,4.20
2023-04-23T09:40:40.782Z,6.10
2023-04-23T09:45:50.794Z,3.60
2023-04-23T09:50:56.059Z,4.20
2023-04-23T09:55:59.215Z,4.20
2023-04-23T10:01:09.712Z,4.10
2023-04-23T10:06:25.900Z,3.90
2023-04-23T10:11:41.824Z,4.20
2023-04-23T10:16:49.324Z,3.60
2023-04-23T10:27:33.447Z,4.90
2023-04-23T10:32:49.228Z,4.20
2023-04-23T10:37:53.409Z,6.30
2023-04-23T10:42:57.292Z,5.10
2023-04-23T10:48:00.509Z,4.50
2023-04-23T10:53:04.540Z,4.70
2023-04-23T10:58:08.595Z,4.10
2023-04-23T11:03:32.917Z,4.20
2023-04-23T11:08:36.678Z,4.60
2023-04-23T11:13:54.303Z,4.50
2023-04-23T11:19:12.773Z,4.90
2023-04-23T11:24:16.103Z,4.40
2023-04-23T11:29:26.346Z,4.40
2023-04-23T11:34:29.814Z,4.30
2023-04-23T11:39:33.108Z,4.20
2023-04-23T11:44:39.753Z,4.40
2023-04-23T11:49:45.031Z,4.40
2023-04-23T11:54:48.675Z,4.10
2023-04-23T11:59:54.131Z,4.60
2023-04-23T12:04:57.201Z,4.50
2023-04-23T12:10:00.959Z,4.70
2023-04-23T12:15:08.533Z,4.40
2023-04-23T12:20:19.559Z,4.50
2023-04-23T12:25:24.247Z,4.10
2023-04-23T12:30:32.787Z,3.90
2023-04-23T12:35:50.583Z,4.30
2023-04-23T12:40:56.745Z,4.20
2023-04-23T12:45:59.966Z,4.00
2023-04-23T12:51:04.925Z,4.50
2023-04-23T12:56:07.966Z,3.80
2023-04-23T13:01:12.946Z,4.40
2023-04-23T13:06:16.513Z,4.60
2023-04-23T13:11:19.611Z,4.00
2023-04-23T13:16:22.861Z,4.00
2023-04-23T13:21:26.733Z,3.80
2023-04-23T13:26:32.312Z,4.00
2023-04-23T13:31:35.854Z,4.10
2023-04-23T13:36:41.600Z,4.10
2023-04-23T13:41:47.836Z,4.50
2023-04-23T13:46:54.858Z,6.10
2023-04-23T13:52:01.358Z,4.00
2023-04-23T13:57:04.705Z,4.20
2023-04-23T14:02:07.946Z,4.00
2023-04-23T14:07:11.591Z,4.30
2023-04-23T14:12:14.811Z,4.40
2023-04-23T14:17:18.002Z,4.80
2023-04-23T14:22:21.109Z,4.40
2023-04-23T14:27:24.314Z,4.20
2023-04-23T14:32:27.588Z,4.70
2023-04-23T14:37:30.869Z,4.30
2023-04-23T14:42:34.044Z,4.70
2023-04-23T14:47:37.326Z,4.50
2023-04-23T14:52:40.578Z,4.40
2023-04-23T14:57:44.198Z,4.70
2023-04-23T15:09:55.633Z,4.30
2023-04-23T15:14:58.841Z,5.90
2023-04-23T15:20:02.205Z,4.90
2023-04-23T15:25:06.905Z,6.80
2023-04-23T15:30:10.987Z,4.40
2023-04-23T15:35:14.139Z,4.30
2023-04-23T15:40:18.182Z,4.10
2023-04-23T15:45:21.378Z,4.10
2023-04-23T15:50:26.947Z,4.20
2023-04-23T15:55:30.887Z,5.80
2023-04-23T16:00:34.485Z,4.70
2023-04-23T16:05:37.692Z,5.50
2023-04-23T16:10:42.856Z,5.20
2023-04-23T16:15:46.269Z,5.80
2023-04-23T16:20:49.570Z,4.70
2023-04-23T16:25:53.198Z,4.20
2023-04-23T16:30:56.922Z,4.20
2023-04-23T16:36:00.126Z,4.80
2023-04-23T16:41:03.648Z,4.90
2023-04-23T16:46:06.909Z,4.90
2023-04-23T16:51:10.797Z,5.80
2023-04-23T16:56:13.989Z,5.50
2023-04-23T17:01:18.246Z,5.40
2023-04-23T17:06:30.813Z,6.00
2023-04-23T17:11:33.942Z,5.30
2023-04-23T17:16:37.113Z,5.60
2023-04-23T17:21:40.681Z,6.30
2023-04-23T17:26:43.993Z,6.50
2023-04-23T17:31:47.243Z,6.20
2023-04-23T17:36:51.118Z,5.50
2023-04-23T17:41:56.370Z,5.50
2023-04-23T17:46:59.782Z,5.20
2023-04-23T17:52:03.721Z,5.40
2023-04-23T17:57:10.022Z,5.80
2023-04-23T18:02:13.303Z,8.80
2023-04-23T18:07:16.740Z,10.50
2023-04-23T18:12:20.030Z,14.80
2023-04-23T18:17:25.309Z,6.60
2023-04-23T18:22:28.617Z,7.30
2023-04-23T18:27:34.011Z,8.70
2023-04-23T18:32:47.229Z,7.80
2023-04-23T18:37:59.510Z,6.40
2023-04-23T18:43:03.051Z,6.70
2023-04-23T18:48:35.364Z,5.40
2023-04-23T18:53:39.280Z,5.60
2023-04-23T18:58:42.585Z,6.00
2023-04-23T19:03:45.967Z,5.40
2023-04-23T19:08:49.415Z,6.10
2023-04-23T19:13:53.117Z,5.20
2023-04-23T19:18:56.525Z,5.00
2023-04-23T19:23:59.944Z,5.10
2023-04-23T19:29:03.859Z,5.40
2023-04-23T19:34:06.981Z,4.90
2023-04-23T19:39:10.906Z,5.40
2023-04-23T19:44:14.119Z,5.60
2023-04-23T19:49:17.411Z,5.30
2023-04-23T19:54:21.777Z,7.30
2023-04-23T19:59:27.631Z,9.40
2023-04-23T20:04:31.152Z,7.40
2023-04-23T20:09:35.891Z,8.80
2023-04-23T20:14:39.092Z,8.40
2023-04-23T20:19:45.066Z,23.40
2023-04-23T20:24:49.307Z,27.90
2023-04-23T20:29:52.706Z,42.00
2023-04-23T20:34:56.532Z,39.40
2023-04-23T20:40:00.464Z,27.00
2023-04-23T20:45:04.420Z,24.20
2023-04-23T20:50:08.638Z,26.20
2023-04-23T20:55:11.942Z,23.70
2023-04-23T21:00:16.156Z,21.60
2023-04-23T21:05:19.695Z,25.80
2023-04-23T21:10:23.091Z,25.30
2023-04-23T21:15:26.508Z,13.60
2023-04-23T21:20:30.681Z,16.40
2023-04-23T21:25:34.908Z,17.60
2023-04-23T21:30:53.098Z,11.20
2023-04-23T21:35:56.337Z,8.60
2023-04-23T21:41:01.535Z,7.60
2023-04-23T21:46:04.900Z,7.80
2023-04-23T21:51:08.107Z,7.40
2023-04-23T21:56:11.526Z,9.80
2023-04-23T22:01:14.658Z,10.20
2023-04-23T22:06:18.546Z,12.00
2023-04-23T22:11:21.974Z,11.50
2023-04-23T22:16:28.581Z,10.10
2023-04-23T22:21:33.126Z,10.50
2023-04-23T22:26:36.824Z,12.20
2023-04-23T22:31:40.254Z,11.70
2023-04-23T22:36:43.572Z,11.00
2023-04-23T22:41:46.962Z,10.00
2023-04-23T22:46:50.582Z,10.10
2023-04-23T22:51:53.992Z,9.10
2023-04-23T22:56:57.195Z,9.30
2023-04-23T23:02:00.446Z,8.80
2023-04-23T23:07:05.056Z,9.50
2023-04-23T23:12:08.572Z,10.30
2023-04-23T23:17:11.777Z,9.40
2023-04-23T23:22:15.114Z,9.10
2023-04-23T23:27:18.298Z,11.30
2023-04-23T23:32:21.444Z,9.90
2023-04-23T23:37:24.857Z,11.10
2023-04-23T23:42:28.042Z,11.80
2023-04-23T23:47:31.608Z,11.70
2023-04-23T23:52:35.053Z,12.20
2023-04-23T23:57:38.272Z,11.00
